Time;durP1;ratioP1;P1;durP2;ratioP2;P2;SDS_P1;SDS_P2;PMS_P1;PMS_P2;Temp;Humidity;BMP_temperature;BMP_pressure;BME280_temperature;BME280_humidity;BME280_pressure;Samples;Min_cycle;Max_cycle;Signal;HPM_P1;HPM_P2
2021/09/08 00:01:49;;;;;;;;;;;17.60;99.90;;;;;;6185264;23;20051;-72
2021/09/08 00:04:38;;;;;;;;;;;17.60;99.90;;;;;;6184533;23;19924;-71
2021/09/08 00:07:28;;;;;;;;;;;17.50;99.90;;;;;;6183440;23;19920;-71
2021/09/08 00:10:17;;;;;;;;;;;17.50;99.90;;;;;;6185438;23;19921;-72
2021/09/08 00:13:06;;;;;;;;;;;17.50;99.90;;;;;;6184431;23;19927;-72
2021/09/08 00:15:54;;;;;;;;;;;17.50;99.90;;;;;;6185663;23;19951;-72
2021/09/08 00:18:44;;;;;;;;;;;17.40;99.90;;;;;;6162754;23;19927;-72
2021/09/08 00:21:33;;;;;;;;;;;17.40;99.90;;;;;;6163002;23;20353;-72
2021/09/08 00:24:23;;;;;;;;;;;17.40;99.90;;;;;;6161237;23;20315;-71
2021/09/08 00:27:14;;;;;;;;;;;17.30;99.90;;;;;;6162976;23;19928;-72
2021/09/08 00:30:04;;;;;;;;;;;17.30;99.90;;;;;;6182934;23;19964;-72
2021/09/08 00:32:54;;;;;;;;;;;17.30;99.90;;;;;;6183882;23;19920;-72
2021/09/08 00:35:44;;;;;;;;;;;17.30;99.90;;;;;;6162710;23;19927;-72
2021/09/08 00:38:33;;;;;;;;;;;17.30;99.90;;;;;;6183248;23;19925;-72
2021/09/08 00:41:24;;;;;;;;;;;17.20;99.90;;;;;;6184367;23;20257;-72
2021/09/08 00:44:15;;;;;;;;;;;17.20;99.90;;;;;;6184863;23;20365;-73
2021/09/08 00:47:05;;;;;;;;;;;17.20;99.90;;;;;;6182672;23;19972;-72
2021/09/08 00:49:54;;;;;;;;;;;17.20;99.90;;;;;;6162064;23;19920;-71
2021/09/08 00:52:43;;;;;;;;;;;17.20;99.90;;;;;;6182914;23;19921;-72
2021/09/08 00:55:35;;;;;;;;;;;17.20;99.90;;;;;;6182718;23;19928;-73
2021/09/08 00:58:25;;;;;;;;;;;17.20;99.90;;;;;;6181022;23;20008;-71
2021/09/08 01:04:28;;;;;;;;;;;17.10;99.90;;;;;;6162815;23;19924;-72
2021/09/08 01:07:18;;;;;;;;;;;17.10;99.90;;;;;;6184559;23;19943;-72
2021/09/08 01:10:07;;;;;;;;;;;17.00;99.90;;;;;;6184348;23;19920;-72
2021/09/08 01:12:57;;;;;;;;;;;17.00;99.90;;;;;;6185491;23;19998;-72
2021/09/08 01:15:57;;;;;;;;;;;17.00;99.90;;;;;;6184653;23;19999;-72
2021/09/08 01:18:45;;;;;;;;;;;17.00;99.90;;;;;;6184388;23;19924;-71
2021/09/08 01:21:34;;;;;;;;;;;17.00;99.90;;;;;;6183042;23;19920;-72
2021/09/08 01:24:24;;;;;;;;;;;17.00;99.90;;;;;;6163470;23;19931;-71
2021/09/08 01:27:14;;;;;;;;;;;17.00;99.90;;;;;;6184452;23;19920;-71
2021/09/08 01:30:02;;;;;;;;;;;17.00;99.90;;;;;;6186908;23;19928;-72
2021/09/08 01:32:54;;;;;;;;;;;16.90;99.90;;;;;;6186489;23;20251;-72
2021/09/08 01:35:43;;;;;;;;;;;16.90;99.90;;;;;;6185965;23;19967;-72
2021/09/08 01:38:32;;;;;;;;;;;16.90;99.90;;;;;;6164126;23;19931;-72
2021/09/08 01:41:23;;;;;;;;;;;16.80;99.90;;;;;;6185351;23;19952;-71
2021/09/08 01:44:11;;;;;;;;;;;16.80;99.90;;;;;;6183555;23;20011;-72
2021/09/08 01:47:00;;;;;;;;;;;16.80;99.90;;;;;;6185161;23;19920;-71
2021/09/08 01:49:48;;;;;;;;;;;16.80;99.90;;;;;;6184988;23;19927;-72
2021/09/08 01:52:38;;;;;;;;;;;16.70;99.90;;;;;;6162907;23;19920;-72
2021/09/08 01:55:27;;;;;;;;;;;16.70;99.90;;;;;;6162541;23;20250;-71
2021/09/08 01:58:17;;;;;;;;;;;16.70;99.90;;;;;;6185040;23;19924;-72
2021/09/08 02:01:08;;;;;;;;;;;16.60;99.90;;;;;;6184318;23;19970;-71
2021/09/08 02:04:00;;;;;;;;;;;16.60;99.90;;;;;;6184527;23;19956;-71
2021/09/08 02:06:49;;;;;;;;;;;16.60;99.90;;;;;;6182553;23;19930;-72
2021/09/08 02:09:38;;;;;;;;;;;16.50;99.90;;;;;;6184435;23;19920;-71
2021/09/08 02:12:26;;;;;;;;;;;16.40;99.90;;;;;;6185382;23;19920;-72
2021/09/08 02:15:16;;;;;;;;;;;16.40;99.90;;;;;;6183779;23;19927;-72
2021/09/08 02:18:07;;;;;;;;;;;16.40;99.90;;;;;;6183948;23;19927;-72
2021/09/08 02:20:56;;;;;;;;;;;16.40;99.90;;;;;;6184144;23;19920;-72
2021/09/08 02:23:45;;;;;;;;;;;16.40;99.90;;;;;;6184488;23;19956;-71
2021/09/08 02:26:35;;;;;;;;;;;16.30;99.90;;;;;;6184578;23;19920;-71
2021/09/08 02:32:37;;;;;;;;;;;16.30;99.90;;;;;;6184445;23;20397;-73
2021/09/08 02:35:26;;;;;;;;;;;16.30;99.90;;;;;;6184389;23;19935;-71
2021/09/08 02:38:15;;;;;;;;;;;16.30;99.90;;;;;;6162408;23;19931;-72
2021/09/08 02:41:08;;;;;;;;;;;16.30;99.90;;;;;;6142311;23;20259;-72
2021/09/08 02:43:56;;;;;;;;;;;16.30;99.90;;;;;;6184950;23;19920;-72
2021/09/08 02:46:45;;;;;;;;;;;16.30;99.90;;;;;;6200585;23;19930;-71
2021/09/08 02:49:35;;;;;;;;;;;16.20;99.90;;;;;;6170676;23;19956;-72
2021/09/08 02:52:24;;;;;;;;;;;16.20;99.90;;;;;;6181878;23;19920;-72
2021/09/08 02:55:13;;;;;;;;;;;16.20;99.90;;;;;;6184901;23;19991;-72
2021/09/08 02:58:02;;;;;;;;;;;16.10;99.90;;;;;;6182474;23;19944;-71
2021/09/08 03:00:50;;;;;;;;;;;16.20;99.90;;;;;;6184985;23;19996;-71
2021/09/08 03:03:38;;;;;;;;;;;16.20;99.90;;;;;;6182160;23;19921;-71
2021/09/08 03:06:29;;;;;;;;;;;16.10;99.90;;;;;;6182189;23;19932;-71
2021/09/08 03:09:17;;;;;;;;;;;16.10;99.90;;;;;;6182227;23;20330;-73
2021/09/08 03:12:06;;;;;;;;;;;16.10;99.90;;;;;;6182316;23;19920;-72
2021/09/08 03:14:54;;;;;;;;;;;16.00;99.90;;;;;;6183473;23;19920;-71
2021/09/08 03:17:43;;;;;;;;;;;16.00;99.90;;;;;;6184261;23;19924;-72
2021/09/08 03:20:33;;;;;;;;;;;16.00;99.90;;;;;;6161894;23;19960;-72
2021/09/08 03:23:27;;;;;;;;;;;16.00;99.90;;;;;;6183690;23;19927;-72
2021/09/08 03:26:17;;;;;;;;;;;15.90;99.90;;;;;;6184716;23;19927;-72
2021/09/08 03:29:05;;;;;;;;;;;15.90;99.90;;;;;;6183713;23;19920;-71
2021/09/08 03:31:54;;;;;;;;;;;15.90;99.90;;;;;;6184911;23;19927;-72
2021/09/08 03:34:42;;;;;;;;;;;15.90;99.90;;;;;;6183329;23;20416;-72
2021/09/08 03:37:31;;;;;;;;;;;15.80;99.90;;;;;;6161506;23;19920;-71
2021/09/08 03:40:22;;;;;;;;;;;15.80;99.90;;;;;;6182721;23;20092;-72
2021/09/08 03:43:11;;;;;;;;;;;15.80;99.90;;;;;;6161722;23;19925;-72
2021/09/08 03:45:59;;;;;;;;;;;15.70;99.90;;;;;;6183731;23;19921;-72
2021/09/08 03:48:48;;;;;;;;;;;15.70;99.90;;;;;;6182166;23;19920;-72
2021/09/08 03:51:41;;;;;;;;;;;15.70;99.90;;;;;;6183425;23;19921;-72
2021/09/08 03:54:30;;;;;;;;;;;15.80;99.90;;;;;;6183698;23;19927;-72
2021/09/08 03:57:20;;;;;;;;;;;15.70;99.90;;;;;;6182245;23;19920;-72
2021/09/08 04:00:09;;;;;;;;;;;15.70;99.90;;;;;;6184525;23;19920;-71
2021/09/08 04:02:57;;;;;;;;;;;15.70;99.90;;;;;;6185051;23;20029;-71
2021/09/08 04:05:46;;;;;;;;;;;15.70;99.90;;;;;;6184583;23;19996;-71
2021/09/08 04:08:35;;;;;;;;;;;15.70;99.90;;;;;;6184382;23;19927;-71
2021/09/08 04:11:23;;;;;;;;;;;15.70;99.90;;;;;;6184945;23;19923;-72
2021/09/08 04:14:13;;;;;;;;;;;15.70;99.90;;;;;;6162413;23;20334;-71
2021/09/08 04:17:02;;;;;;;;;;;15.70;99.90;;;;;;6184804;23;19920;-72
2021/09/08 05:10:38;;;;;;;;;;;15.50;99.90;;;;;;6239464;23;19908;-91
2021/09/08 05:13:46;;;;;;;;;;;15.50;99.90;;;;;;6216096;23;19920;-92
2021/09/08 11:05:48;;;;;;;;;;;23.60;97.90;;;;;;6192593;22;19923;-89
2021/09/08 11:08:46;;;;;;;;;;;23.70;98.10;;;;;;6220489;23;19904;-90
2021/09/08 11:11:53;;;;;;;;;;;23.80;98.50;;;;;;6218209;23;19930;-90
2021/09/08 11:32:17;;;;;;;;;;;23.70;95.60;;;;;;6179405;23;19944;-65
